sensor_id;sensor_type;location;lat;lon;timestamp;P1;durP1;ratioP1;P2;durP2;ratioP2
16820;SDS011;8527;49.740;6.604;2024-01-07T00:00:45;6.93;;;3.63;;
16820;SDS011;8527;49.740;6.604;2024-01-07T00:05:46;7.13;;;3.80;;
16820;SDS011;8527;49.740;6.604;2024-01-07T00:10:44;6.43;;;3.80;;
16820;SDS011;8527;49.740;6.604;2024-01-07T00:15:43;4.85;;;3.50;;
16820;SDS011;8527;49.740;6.604;2024-01-07T00:20:47;5.30;;;3.50;;
16820;SDS011;8527;49.740;6.604;2024-01-07T00:25:51;6.97;;;3.60;;
16820;SDS011;8527;49.740;6.604;2024-01-07T00:30:53;4.30;;;3.00;;
16820;SDS011;8527;49.740;6.604;2024-01-07T00:35:57;3.20;;;2.50;;
16820;SDS011;8527;49.740;6.604;2024-01-07T00:40:56;3.55;;;2.75;;
16820;SDS011;8527;49.740;6.604;2024-01-07T00:45:57;3.65;;;2.70;;
16820;SDS011;8527;49.740;6.604;2024-01-07T00:50:58;2.70;;;2.40;;
16820;SDS011;8527;49.740;6.604;2024-01-07T00:55:57;2.45;;;2.25;;
16820;SDS011;8527;49.740;6.604;2024-01-07T01:00:55;3.22;;;2.50;;
16820;SDS011;8527;49.740;6.604;2024-01-07T01:05:59;3.00;;;2.47;;
16820;SDS011;8527;49.740;6.604;2024-01-07T01:10:57;3.00;;;2.40;;
16820;SDS011;8527;49.740;6.604;2024-01-07T01:16:11;2.60;;;2.30;;
16820;SDS011;8527;49.740;6.604;2024-01-07T01:21:12;3.28;;;2.70;;
16820;SDS011;8527;49.740;6.604;2024-01-07T01:26:10;3.88;;;2.90;;
16820;SDS011;8527;49.740;6.604;2024-01-07T01:31:12;3.58;;;2.90;;
16820;SDS011;8527;49.740;6.604;2024-01-07T01:36:16;3.55;;;2.95;;
16820;SDS011;8527;49.740;6.604;2024-01-07T01:41:15;4.65;;;3.38;;
16820;SDS011;8527;49.740;6.604;2024-01-07T01:46:21;4.88;;;2.78;;
16820;SDS011;8527;49.740;6.604;2024-01-07T01:51:37;6.20;;;3.47;;
16820;SDS011;8527;49.740;6.604;2024-01-07T01:56:47;6.32;;;4.00;;
16820;SDS011;8527;49.740;6.604;2024-01-07T02:01:50;7.53;;;3.63;;
16820;SDS011;8527;49.740;6.604;2024-01-07T02:06:52;6.25;;;3.65;;
16820;SDS011;8527;49.740;6.604;2024-01-07T02:12:01;8.05;;;4.50;;
16820;SDS011;8527;49.740;6.604;2024-01-07T02:17:05;5.75;;;3.45;;
16820;SDS011;8527;49.740;6.604;2024-01-07T02:22:09;6.18;;;3.60;;
16820;SDS011;8527;49.740;6.604;2024-01-07T02:27:16;5.90;;;4.00;;
16820;SDS011;8527;49.740;6.604;2024-01-07T02:32:21;7.38;;;4.15;;
16820;SDS011;8527;49.740;6.604;2024-01-07T02:37:33;5.97;;;3.85;;
16820;SDS011;8527;49.740;6.604;2024-01-07T02:42:34;5.97;;;3.92;;
16820;SDS011;8527;49.740;6.604;2024-01-07T02:47:32;7.32;;;4.05;;
16820;SDS011;8527;49.740;6.604;2024-01-07T02:52:31;7.57;;;4.43;;
16820;SDS011;8527;49.740;6.604;2024-01-07T02:57:29;6.55;;;4.13;;
16820;SDS011;8527;49.740;6.604;2024-01-07T03:02:30;7.28;;;4.50;;
16820;SDS011;8527;49.740;6.604;2024-01-07T03:07:29;7.90;;;4.50;;
16820;SDS011;8527;49.740;6.604;2024-01-07T03:12:33;6.63;;;4.40;;
16820;SDS011;8527;49.740;6.604;2024-01-07T03:17:34;7.38;;;4.55;;
16820;SDS011;8527;49.740;6.604;2024-01-07T03:22:35;7.35;;;4.53;;
16820;SDS011;8527;49.740;6.604;2024-01-07T03:27:34;6.18;;;4.47;;
16820;SDS011;8527;49.740;6.604;2024-01-07T03:32:38;6.97;;;4.53;;
16820;SDS011;8527;49.740;6.604;2024-01-07T03:37:36;6.97;;;4.60;;
16820;SDS011;8527;49.740;6.604;2024-01-07T03:42:38;7.97;;;3.90;;
16820;SDS011;8527;49.740;6.604;2024-01-07T03:47:42;6.30;;;3.90;;
16820;SDS011;8527;49.740;6.604;2024-01-07T03:52:47;7.00;;;4.45;;
16820;SDS011;8527;49.740;6.604;2024-01-07T03:57:49;8.00;;;4.57;;
16820;SDS011;8527;49.740;6.604;2024-01-07T04:02:50;7.60;;;4.15;;
16820;SDS011;8527;49.740;6.604;2024-01-07T04:07:51;6.50;;;4.43;;
16820;SDS011;8527;49.740;6.604;2024-01-07T04:12:49;7.35;;;4.57;;
16820;SDS011;8527;49.740;6.604;2024-01-07T04:17:53;7.85;;;4.53;;
16820;SDS011;8527;49.740;6.604;2024-01-07T04:22:54;7.57;;;4.93;;
16820;SDS011;8527;49.740;6.604;2024-01-07T04:27:52;8.65;;;5.60;;
16820;SDS011;8527;49.740;6.604;2024-01-07T04:32:56;8.93;;;5.40;;
16820;SDS011;8527;49.740;6.604;2024-01-07T04:37:57;8.93;;;5.65;;
16820;SDS011;8527;49.740;6.604;2024-01-07T04:43:06;10.65;;;5.45;;
16820;SDS011;8527;49.740;6.604;2024-01-07T04:48:10;9.07;;;5.53;;
16820;SDS011;8527;49.740;6.604;2024-01-07T04:53:11;9.48;;;5.10;;
16820;SDS011;8527;49.740;6.604;2024-01-07T04:58:10;7.97;;;5.20;;
16820;SDS011;8527;49.740;6.604;2024-01-07T05:03:11;9.43;;;5.18;;
16820;SDS011;8527;49.740;6.604;2024-01-07T05:08:10;8.43;;;5.28;;
16820;SDS011;8527;49.740;6.604;2024-01-07T05:13:19;10.68;;;5.88;;
16820;SDS011;8527;49.740;6.604;2024-01-07T05:18:20;8.43;;;4.82;;
16820;SDS011;8527;49.740;6.604;2024-01-07T05:23:19;9.60;;;5.30;;
16820;SDS011;8527;49.740;6.604;2024-01-07T05:28:18;8.88;;;5.13;;
16820;SDS011;8527;49.740;6.604;2024-01-07T05:33:24;7.95;;;5.32;;
16820;SDS011;8527;49.740;6.604;2024-01-07T05:38:23;10.77;;;4.97;;
16820;SDS011;8527;49.740;6.604;2024-01-07T05:43:24;8.88;;;5.07;;
16820;SDS011;8527;49.740;6.604;2024-01-07T05:48:25;9.50;;;5.00;;
16820;SDS011;8527;49.740;6.604;2024-01-07T05:53:27;8.43;;;5.13;;
16820;SDS011;8527;49.740;6.604;2024-01-07T05:58:36;8.05;;;4.78;;
16820;SDS011;8527;49.740;6.604;2024-01-07T06:03:37;7.97;;;4.68;;
16820;SDS011;8527;49.740;6.604;2024-01-07T06:08:35;9.80;;;5.43;;
16820;SDS011;8527;49.740;6.604;2024-01-07T06:13:33;11.00;;;5.40;;
16820;SDS011;8527;49.740;6.604;2024-01-07T06:18:33;9.50;;;4.80;;
16820;SDS011;8527;49.740;6.604;2024-01-07T06:23:37;10.68;;;5.63;;
16820;SDS011;8527;49.740;6.604;2024-01-07T06:28:38;7.32;;;4.03;;
16820;SDS011;8527;49.740;6.604;2024-01-07T06:33:39;10.70;;;5.35;;
16820;SDS011;8527;49.740;6.604;2024-01-07T06:38:46;10.35;;;5.82;;
16820;SDS011;8527;49.740;6.604;2024-01-07T06:43:47;10.20;;;5.47;;
16820;SDS011;8527;49.740;6.604;2024-01-07T06:48:49;10.15;;;5.05;;
16820;SDS011;8527;49.740;6.604;2024-01-07T06:53:50;9.65;;;5.38;;
16820;SDS011;8527;49.740;6.604;2024-01-07T06:58:48;8.30;;;4.88;;
16820;SDS011;8527;49.740;6.604;2024-01-07T07:03:52;9.18;;;5.22;;
16820;SDS011;8527;49.740;6.604;2024-01-07T07:08:53;7.75;;;4.85;;
16820;SDS011;8527;49.740;6.604;2024-01-07T07:13:52;10.70;;;5.30;;
16820;SDS011;8527;49.740;6.604;2024-01-07T07:18:50;9.52;;;5.10;;
16820;SDS011;8527;49.740;6.604;2024-01-07T07:23:53;9.90;;;5.20;;
16820;SDS011;8527;49.740;6.604;2024-01-07T07:28:52;8.57;;;4.63;;
16820;SDS011;8527;49.740;6.604;2024-01-07T07:33:50;7.20;;;4.47;;
16820;SDS011;8527;49.740;6.604;2024-01-07T07:38:54;8.82;;;5.03;;
16820;SDS011;8527;49.740;6.604;2024-01-07T07:43:53;12.15;;;4.93;;
16820;SDS011;8527;49.740;6.604;2024-01-07T07:48:53;7.95;;;4.85;;
16820;SDS011;8527;49.740;6.604;2024-01-07T07:53:55;8.10;;;4.85;;
16820;SDS011;8527;49.740;6.604;2024-01-07T07:58:56;8.80;;;4.90;;
16820;SDS011;8527;49.740;6.604;2024-01-07T08:03:54;8.07;;;4.43;;
16820;SDS011;8527;49.740;6.604;2024-01-07T08:08:58;7.68;;;4.63;;
16820;SDS011;8527;49.740;6.604;2024-01-07T08:13:57;10.05;;;4.90;;
16820;SDS011;8527;49.740;6.604;2024-01-07T08:18:56;8.02;;;4.72;;
16820;SDS011;8527;49.740;6.604;2024-01-07T08:24:00;7.75;;;4.50;;
16820;SDS011;8527;49.740;6.604;2024-01-07T08:28:59;8.02;;;4.63;;
16820;SDS011;8527;49.740;6.604;2024-01-07T08:33:57;8.95;;;4.63;;
16820;SDS011;8527;49.740;6.604;2024-01-07T08:38:58;4.78;;;3.25;;
16820;SDS011;8527;49.740;6.604;2024-01-07T08:44:04;6.63;;;4.38;;
16820;SDS011;8527;49.740;6.604;2024-01-07T08:49:03;6.28;;;3.90;;
16820;SDS011;8527;49.740;6.604;2024-01-07T08:54:04;5.70;;;3.35;;
16820;SDS011;8527;49.740;6.604;2024-01-07T08:59:03;4.85;;;3.13;;
16820;SDS011;8527;49.740;6.604;2024-01-07T09:04:01;5.40;;;3.78;;
16820;SDS011;8527;49.740;6.604;2024-01-07T09:09:05;5.38;;;3.50;;
16820;SDS011;8527;49.740;6.604;2024-01-07T09:14:03;6.15;;;3.55;;
16820;SDS011;8527;49.740;6.604;2024-01-07T09:19:02;5.45;;;3.70;;
16820;SDS011;8527;49.740;6.604;2024-01-07T09:24:00;4.20;;;3.20;;
16820;SDS011;8527;49.740;6.604;2024-01-07T09:29:01;4.78;;;3.20;;
16820;SDS011;8527;49.740;6.604;2024-01-07T09:34:00;6.70;;;3.78;;
16820;SDS011;8527;49.740;6.604;2024-01-07T09:38:59;3.08;;;2.42;;
16820;SDS011;8527;49.740;6.604;2024-01-07T09:44:03;6.05;;;3.45;;
16820;SDS011;8527;49.740;6.604;2024-01-07T09:49:05;5.22;;;3.33;;
16820;SDS011;8527;49.740;6.604;2024-01-07T09:54:11;7.30;;;3.40;;
16820;SDS011;8527;49.740;6.604;2024-01-07T09:59:18;6.20;;;3.70;;
16820;SDS011;8527;49.740;6.604;2024-01-07T10:04:18;4.72;;;3.17;;
16820;SDS011;8527;49.740;6.604;2024-01-07T10:09:22;4.13;;;2.40;;
16820;SDS011;8527;49.740;6.604;2024-01-07T10:14:29;5.30;;;3.22;;
16820;SDS011;8527;49.740;6.604;2024-01-07T10:19:28;4.38;;;2.97;;
16820;SDS011;8527;49.740;6.604;2024-01-07T10:24:26;3.08;;;2.67;;
16820;SDS011;8527;49.740;6.604;2024-01-07T10:29:38;4.18;;;3.05;;
16820;SDS011;8527;49.740;6.604;2024-01-07T10:34:37;2.85;;;2.45;;
16820;SDS011;8527;49.740;6.604;2024-01-07T10:39:37;3.72;;;2.55;;
16820;SDS011;8527;49.740;6.604;2024-01-07T10:44:38;2.08;;;1.83;;
16820;SDS011;8527;49.740;6.604;2024-01-07T10:49:39;5.82;;;3.15;;
16820;SDS011;8527;49.740;6.604;2024-01-07T10:54:42;4.68;;;3.03;;
16820;SDS011;8527;49.740;6.604;2024-01-07T10:59:45;4.07;;;3.08;;
16820;SDS011;8527;49.740;6.604;2024-01-07T11:04:45;4.25;;;2.90;;
16820;SDS011;8527;49.740;6.604;2024-01-07T11:09:51;4.35;;;2.83;;
16820;SDS011;8527;49.740;6.604;2024-01-07T11:15:02;4.80;;;2.90;;
16820;SDS011;8527;49.740;6.604;2024-01-07T11:20:06;6.35;;;4.15;;
16820;SDS011;8527;49.740;6.604;2024-01-07T11:30:32;4.07;;;2.78;;
16820;SDS011;8527;49.740;6.604;2024-01-07T11:40:53;7.80;;;3.33;;
16820;SDS011;8527;49.740;6.604;2024-01-07T11:45:56;4.78;;;3.22;;
16820;SDS011;8527;49.740;6.604;2024-01-07T11:50:55;9.35;;;5.53;;
16820;SDS011;8527;49.740;6.604;2024-01-07T11:55:53;9.65;;;5.32;;
16820;SDS011;8527;49.740;6.604;2024-01-07T12:00:51;6.80;;;4.40;;
16820;SDS011;8527;49.740;6.604;2024-01-07T12:05:54;7.28;;;4.30;;
16820;SDS011;8527;49.740;6.604;2024-01-07T12:10:53;7.03;;;4.25;;
16820;SDS011;8527;49.740;6.604;2024-01-07T12:15:52;9.98;;;5.38;;
16820;SDS011;8527;49.740;6.604;2024-01-07T12:20:57;9.88;;;5.43;;
16820;SDS011;8527;49.740;6.604;2024-01-07T12:25:57;9.57;;;5.13;;
16820;SDS011;8527;49.740;6.604;2024-01-07T12:31:05;9.73;;;5.35;;
16820;SDS011;8527;49.740;6.604;2024-01-07T12:36:08;8.63;;;5.22;;
16820;SDS011;8527;49.740;6.604;2024-01-07T12:41:09;10.30;;;5.60;;
16820;SDS011;8527;49.740;6.604;2024-01-07T12:46:07;9.57;;;6.30;;
16820;SDS011;8527;49.740;6.604;2024-01-07T12:51:08;10.27;;;5.38;;
16820;SDS011;8527;49.740;6.604;2024-01-07T12:56:09;13.25;;;7.18;;
16820;SDS011;8527;49.740;6.604;2024-01-07T13:01:13;13.95;;;7.20;;
16820;SDS011;8527;49.740;6.604;2024-01-07T13:06:14;8.45;;;5.03;;
16820;SDS011;8527;49.740;6.604;2024-01-07T13:11:13;11.55;;;6.28;;
16820;SDS011;8527;49.740;6.604;2024-01-07T13:16:12;11.13;;;6.15;;
16820;SDS011;8527;49.740;6.604;2024-01-07T13:21:11;14.85;;;6.90;;
16820;SDS011;8527;49.740;6.604;2024-01-07T13:26:12;10.57;;;6.57;;
16820;SDS011;8527;49.740;6.604;2024-01-07T13:31:11;10.85;;;7.10;;
16820;SDS011;8527;49.740;6.604;2024-01-07T13:36:10;15.52;;;6.55;;
16820;SDS011;8527;49.740;6.604;2024-01-07T13:41:14;10.75;;;5.47;;
16820;SDS011;8527;49.740;6.604;2024-01-07T13:46:12;15.88;;;8.40;;
16820;SDS011;8527;49.740;6.604;2024-01-07T13:51:11;14.65;;;7.90;;
16820;SDS011;8527;49.740;6.604;2024-01-07T13:56:16;13.32;;;8.07;;
16820;SDS011;8527;49.740;6.604;2024-01-07T14:01:15;10.60;;;6.40;;
16820;SDS011;8527;49.740;6.604;2024-01-07T14:06:13;13.55;;;7.78;;
16820;SDS011;8527;49.740;6.604;2024-01-07T14:11:14;12.68;;;7.53;;
16820;SDS011;8527;49.740;6.604;2024-01-07T14:16:13;11.80;;;7.13;;
16820;SDS011;8527;49.740;6.604;2024-01-07T14:21:12;10.38;;;6.32;;
16820;SDS011;8527;49.740;6.604;2024-01-07T14:26:10;12.90;;;7.38;;
16820;SDS011;8527;49.740;6.604;2024-01-07T14:31:12;14.50;;;8.48;;
16820;SDS011;8527;49.740;6.604;2024-01-07T14:36:11;14.20;;;7.90;;
16820;SDS011;8527;49.740;6.604;2024-01-07T14:41:11;17.98;;;10.02;;
16820;SDS011;8527;49.740;6.604;2024-01-07T14:46:12;14.55;;;8.40;;
16820;SDS011;8527;49.740;6.604;2024-01-07T14:51:11;17.70;;;8.73;;
16820;SDS011;8527;49.740;6.604;2024-01-07T14:56:11;15.07;;;7.93;;
16820;SDS011;8527;49.740;6.604;2024-01-07T15:01:12;13.10;;;7.70;;
16820;SDS011;8527;49.740;6.604;2024-01-07T15:06:11;16.90;;;7.88;;
16820;SDS011;8527;49.740;6.604;2024-01-07T15:11:10;14.40;;;8.02;;
16820;SDS011;8527;49.740;6.604;2024-01-07T15:16:14;14.30;;;8.02;;
16820;SDS011;8527;49.740;6.604;2024-01-07T15:21:12;9.60;;;6.00;;
16820;SDS011;8527;49.740;6.604;2024-01-07T15:26:10;8.45;;;6.15;;
16820;SDS011;8527;49.740;6.604;2024-01-07T15:31:09;10.95;;;6.53;;
16820;SDS011;8527;49.740;6.604;2024-01-07T15:36:10;11.57;;;6.60;;
16820;SDS011;8527;49.740;6.604;2024-01-07T15:41:09;8.68;;;5.50;;
16820;SDS011;8527;49.740;6.604;2024-01-07T15:46:10;10.77;;;6.28;;
16820;SDS011;8527;49.740;6.604;2024-01-07T15:51:11;8.43;;;5.13;;
16820;SDS011;8527;49.740;6.604;2024-01-07T15:56:16;8.52;;;5.47;;
16820;SDS011;8527;49.740;6.604;2024-01-07T16:01:15;9.18;;;5.90;;
16820;SDS011;8527;49.740;6.604;2024-01-07T16:06:16;8.88;;;5.63;;
16820;SDS011;8527;49.740;6.604;2024-01-07T16:11:15;8.40;;;5.18;;
16820;SDS011;8527;49.740;6.604;2024-01-07T16:16:13;12.02;;;6.10;;
16820;SDS011;8527;49.740;6.604;2024-01-07T16:21:12;8.38;;;5.18;;
16820;SDS011;8527;49.740;6.604;2024-01-07T16:26:14;9.52;;;5.28;;
16820;SDS011;8527;49.740;6.604;2024-01-07T16:31:15;9.95;;;5.65;;
16820;SDS011;8527;49.740;6.604;2024-01-07T16:36:13;10.23;;;5.72;;
16820;SDS011;8527;49.740;6.604;2024-01-07T16:41:15;10.45;;;6.13;;
16820;SDS011;8527;49.740;6.604;2024-01-07T16:46:14;11.02;;;6.22;;
16820;SDS011;8527;49.740;6.604;2024-01-07T16:51:13;11.35;;;5.63;;
16820;SDS011;8527;49.740;6.604;2024-01-07T16:56:11;9.90;;;5.65;;
16820;SDS011;8527;49.740;6.604;2024-01-07T17:01:12;10.32;;;5.93;;
16820;SDS011;8527;49.740;6.604;2024-01-07T17:06:11;9.70;;;5.75;;
16820;SDS011;8527;49.740;6.604;2024-01-07T17:11:19;10.77;;;5.10;;
16820;SDS011;8527;49.740;6.604;2024-01-07T17:16:23;8.57;;;4.68;;
16820;SDS011;8527;49.740;6.604;2024-01-07T17:21:23;6.20;;;3.75;;
16820;SDS011;8527;49.740;6.604;2024-01-07T17:26:21;6.93;;;4.57;;
16820;SDS011;8527;49.740;6.604;2024-01-07T17:31:20;7.20;;;4.60;;
16820;SDS011;8527;49.740;6.604;2024-01-07T17:36:25;7.18;;;4.60;;
16820;SDS011;8527;49.740;6.604;2024-01-07T17:41:35;8.15;;;4.00;;
16820;SDS011;8527;49.740;6.604;2024-01-07T17:46:42;7.75;;;4.35;;
16820;SDS011;8527;49.740;6.604;2024-01-07T17:51:43;8.27;;;4.30;;
16820;SDS011;8527;49.740;6.604;2024-01-07T17:56:49;8.98;;;5.13;;
16820;SDS011;8527;49.740;6.604;2024-01-07T18:01:50;8.25;;;4.25;;
16820;SDS011;8527;49.740;6.604;2024-01-07T18:06:50;5.65;;;4.15;;
16820;SDS011;8527;49.740;6.604;2024-01-07T18:11:48;8.32;;;3.97;;
16820;SDS011;8527;49.740;6.604;2024-01-07T18:16:47;5.57;;;4.10;;
16820;SDS011;8527;49.740;6.604;2024-01-07T18:21:48;6.95;;;3.88;;
16820;SDS011;8527;49.740;6.604;2024-01-07T18:26:46;8.95;;;5.45;;
16820;SDS011;8527;49.740;6.604;2024-01-07T18:31:51;10.27;;;5.70;;
16820;SDS011;8527;49.740;6.604;2024-01-07T18:36:55;7.47;;;3.63;;
16820;SDS011;8527;49.740;6.604;2024-01-07T18:42:06;8.02;;;4.50;;
16820;SDS011;8527;49.740;6.604;2024-01-07T18:47:05;6.57;;;4.32;;
16820;SDS011;8527;49.740;6.604;2024-01-07T18:52:06;8.15;;;4.63;;
16820;SDS011;8527;49.740;6.604;2024-01-07T18:57:08;5.57;;;3.80;;
16820;SDS011;8527;49.740;6.604;2024-01-07T19:02:07;5.68;;;4.10;;
16820;SDS011;8527;49.740;6.604;2024-01-07T19:07:08;6.35;;;3.70;;
16820;SDS011;8527;49.740;6.604;2024-01-07T19:12:12;5.10;;;3.47;;
16820;SDS011;8527;49.740;6.604;2024-01-07T19:17:12;6.50;;;3.42;;
16820;SDS011;8527;49.740;6.604;2024-01-07T19:22:13;4.80;;;3.25;;
16820;SDS011;8527;49.740;6.604;2024-01-07T19:27:12;4.63;;;3.30;;
16820;SDS011;8527;49.740;6.604;2024-01-07T19:32:13;5.68;;;2.95;;
16820;SDS011;8527;49.740;6.604;2024-01-07T19:37:16;4.90;;;2.83;;
16820;SDS011;8527;49.740;6.604;2024-01-07T19:42:14;4.78;;;3.30;;
16820;SDS011;8527;49.740;6.604;2024-01-07T19:47:13;4.20;;;2.65;;
16820;SDS011;8527;49.740;6.604;2024-01-07T19:52:17;4.00;;;2.65;;
16820;SDS011;8527;49.740;6.604;2024-01-07T19:57:15;4.05;;;2.80;;
16820;SDS011;8527;49.740;6.604;2024-01-07T20:02:14;5.10;;;2.90;;
16820;SDS011;8527;49.740;6.604;2024-01-07T20:07:12;4.80;;;3.10;;
16820;SDS011;8527;49.740;6.604;2024-01-07T20:12:20;5.25;;;2.80;;
16820;SDS011;8527;49.740;6.604;2024-01-07T20:17:18;4.03;;;3.15;;
16820;SDS011;8527;49.740;6.604;2024-01-07T20:22:24;5.72;;;2.33;;
16820;SDS011;8527;49.740;6.604;2024-01-07T20:27:26;3.25;;;2.28;;
16820;SDS011;8527;49.740;6.604;2024-01-07T20:32:24;3.30;;;2.40;;
16820;SDS011;8527;49.740;6.604;2024-01-07T20:37:26;5.13;;;2.15;;
16820;SDS011;8527;49.740;6.604;2024-01-07T20:42:27;4.90;;;2.63;;
16820;SDS011;8527;49.740;6.604;2024-01-07T20:47:29;4.32;;;2.30;;
16820;SDS011;8527;49.740;6.604;2024-01-07T20:52:28;2.63;;;2.17;;
16820;SDS011;8527;49.740;6.604;2024-01-07T20:57:29;3.58;;;2.53;;
16820;SDS011;8527;49.740;6.604;2024-01-07T21:02:31;3.95;;;2.30;;
16820;SDS011;8527;49.740;6.604;2024-01-07T21:07:30;3.15;;;2.10;;
16820;SDS011;8527;49.740;6.604;2024-01-07T21:12:31;3.58;;;2.38;;
16820;SDS011;8527;49.740;6.604;2024-01-07T21:17:29;3.50;;;2.30;;
16820;SDS011;8527;49.740;6.604;2024-01-07T21:22:30;4.18;;;2.60;;
16820;SDS011;8527;49.740;6.604;2024-01-07T21:27:31;4.38;;;2.28;;
16820;SDS011;8527;49.740;6.604;2024-01-07T21:32:30;4.63;;;2.38;;
16820;SDS011;8527;49.740;6.604;2024-01-07T21:37:29;2.97;;;2.47;;
16820;SDS011;8527;49.740;6.604;2024-01-07T21:42:33;2.60;;;1.92;;
16820;SDS011;8527;49.740;6.604;2024-01-07T21:47:32;4.20;;;2.10;;
16820;SDS011;8527;49.740;6.604;2024-01-07T21:52:31;4.18;;;2.28;;
16820;SDS011;8527;49.740;6.604;2024-01-07T21:57:29;3.13;;;1.92;;
16820;SDS011;8527;49.740;6.604;2024-01-07T22:02:31;2.45;;;1.65;;
16820;SDS011;8527;49.740;6.604;2024-01-07T22:07:29;1.88;;;1.50;;
16820;SDS011;8527;49.740;6.604;2024-01-07T22:12:27;5.38;;;1.83;;
16820;SDS011;8527;49.740;6.604;2024-01-07T22:17:29;3.78;;;1.95;;
16820;SDS011;8527;49.740;6.604;2024-01-07T22:22:28;3.40;;;2.17;;
16820;SDS011;8527;49.740;6.604;2024-01-07T22:27:27;2.55;;;1.77;;
16820;SDS011;8527;49.740;6.604;2024-01-07T22:32:31;2.38;;;2.00;;
16820;SDS011;8527;49.740;6.604;2024-01-07T22:37:30;1.98;;;1.52;;
16820;SDS011;8527;49.740;6.604;2024-01-07T22:42:28;2.80;;;1.90;;
16820;SDS011;8527;49.740;6.604;2024-01-07T22:47:27;2.65;;;2.10;;
16820;SDS011;8527;49.740;6.604;2024-01-07T22:52:28;2.65;;;1.70;;
16820;SDS011;8527;49.740;6.604;2024-01-07T22:57:27;4.47;;;2.30;;
16820;SDS011;8527;49.740;6.604;2024-01-07T23:02:28;2.85;;;2.22;;
16820;SDS011;8527;49.740;6.604;2024-01-07T23:07:29;2.03;;;1.40;;
16820;SDS011;8527;49.740;6.604;2024-01-07T23:12:28;1.90;;;1.73;;
16820;SDS011;8527;49.740;6.604;2024-01-07T23:17:36;1.75;;;1.38;;
16820;SDS011;8527;49.740;6.604;2024-01-07T23:22:37;2.60;;;1.95;;
16820;SDS011;8527;49.740;6.604;2024-01-07T23:27:39;4.28;;;1.88;;
16820;SDS011;8527;49.740;6.604;2024-01-07T23:32:41;3.60;;;2.17;;
16820;SDS011;8527;49.740;6.604;2024-01-07T23:37:45;1.98;;;1.52;;
16820;SDS011;8527;49.740;6.604;2024-01-07T23:42:47;2.35;;;2.15;;
16820;SDS011;8527;49.740;6.604;2024-01-07T23:47:45;2.55;;;1.60;;
16820;SDS011;8527;49.740;6.604;2024-01-07T23:52:46;3.00;;;1.80;;
16820;SDS011;8527;49.740;6.604;2024-01-07T23:57:51;1.67;;;1.58;;
